Forside
METAR-TAF:

METAR-TAF

Lufthavne :

Mason Jewett Field

Mason, Michigan, USA

Breddekreds: 42-33-57N, længdekreds: 084-25-24W, højde: 280 m

Aktuelle vejr

Denne rapport blev lavet for 17 minutter siden, kl. 18:16 UTC
Vind 5 kt fra sydvest
Temperatur 8°C
Fugtighed 42%
Tryk 1013 hPa
Sigt: 16.1 km
skyfri

METAR: KTEW 231816Z AUTO 22005KT 10SM CLR 08/M04 A2991 RMK AO2 RMK AO2

Tid: 13:33 (18:33 UTC)


TAF: fraværende

Vejrobservationer og prognoser fra mere end 4000 lufthavne (METAR og TAF).

De gule og røde prikker repræsenterer de meteorologiske stationer.

Flyt musen over at se navnet på stationen.

Så klik over at se vejr observationer og prognoser.

At skifte det kort: Klik på de grønne knapper med et sort kors for at zoome ind; på den grønne knap med en bindestreg for at zoome ud; eller på de grønne pile for tilstødende kort.


METAR-TAF: